Cheektowaga, NY (14225)

9:47 AM EDT on October 01, 2014 (GMT -0400)
Cleve Hill | Change Station
CLOSE
Current Station
Personal Weather Station
Location: Cheektowaga, NY
Elevation: 686 ft
Nearby Weather Stations

Elev 686 ft 42.94 °N, 78.77 °W | Updated 7 minutes ago

Overcast
Overcast
60.7 °F
Feels Like 60.7 °F
N
2.0
Wind Variable Wind from ENE
Gusts 9.0 mph

Today
High -- | Low -- °F
--% Chance of Precip.
Yesterday
High -- | Low -- °F
Precip. -- in
7:12 AM 6:56 PM
Waxing Crescent, 47% visible
Pressure 30.06 in
Visibility 4.0 miles
Clouds Mostly Cloudy 500 ft
Overcast 1700 ft
Dew Point 57 °F
Humidity 89%
Rainfall 0.00 in
Snow Depth Not available.
UV 0 out of 12
Pollen 2.60 out of 12
PM2.5 Moderate
Flu Activity Not available.
METAR KBUF 011254Z 03008KT 4SM BR BKN005 OVC017 15/13 A3006 RMK AO2 SLP179 T01500133

More Conditions Fewer Conditions

Pressure 30.06 in
Visibility 4.0 miles
Clouds Mostly Cloudy 500 ft
Overcast 1700 ft
Dew Point 57 °F
Humidity 89%
Rainfall 0.00 in
Snow Depth Not available.
UV 0 out of 12
Pollen 2.60 out of 12
PM2.5 Moderate
Flu Activity Not available.
METAR KBUF 011254Z 03008KT 4SM BR BKN005 OVC017 15/13 A3006 RMK AO2 SLP179 T01500133

More Conditions Fewer Conditions

10-Day Weather Forecast

Almanac

Astronomy

Oct. 01, 2014 Rise Set
Actual Time 7:12 AM EDT 6:56 PM EDT
Civil Twilight 6:43 AM EDT 7:24 PM EDT
Nautical Twilight 6:11 AM EDT 7:57 PM EDT
Astronomical Twilight 5:37 AM EDT 8:30 PM EDT
Moon 2:17 PM EDT No Moon Set
Length of Visible Light 12h 40m
Length of Day
11h 44m
Tomorrow will be 2m 53s shorter.
Waxing Crescent, 47% of the Moon is Illuminated
Today
Waxing Crescent
Oct 1
First Quarter
Oct 8
Full
Oct 15
Last Quarter
Oct 23
New

Today's Extremes

State Highs State Lows

Community

WunderPhotos

Upload Photos

1,757,942 photos uploaded!

Nearby

Air Quality

  Air Quality AQ Index Pollutant
Yesterday Moderate
PM2.5
Yesterday Good
OZONE
Current Moderate
PM2.5
Wednesday Good
PM2.5

Snow Depth

Station Depth Elevation
No new snow has been reported.

Earthquake Activity

City Distance Mag. Time & Date
No recent earthquake activity has been reported nearby.
Minimum magnitude displayed is 2.5.

Coastal Water Temperatures

Place Temperature
Buffalo, NY 66.9 °F

Nearby Weather Stations